East Berne, New York
Current Conditions -  °F | °C
As of 5:51 PM on Thursday 27 Nov 2014 (Local Time) from KALB Reporting Station
Light Snow Light Snow  
Wind Chill: -5°   Ceiling: 2700
Heat Index: -2°   Visibility: 3mi
Dew Point: -3°   Wind: 6mph
Humidity: 89%   Direction: 330°NNW
Pressure: 30.03"   Gusts: NA
Location:  42.62°N, 74.07°W
Report Text: KALB 272251Z 33005KT 3SM -SN BR FEW008 BKN027 OVC035 M02/M03 A3003 RMK AO2 SLP173 BKN V SCT P0001 T10171033
Loading
Personal Weather Stations






























Interactive Weather Map New forecast layout! Learn more

10-Day Weather Forecast

Advertisements
Track Severe Weather on mobile